sensor_id;sensor_type;location;lat;lon;timestamp;temperature;humidity
22321;DHT22;11328;53.928;18.522;2023-02-17T00:01:28;6.90;99.90
22321;DHT22;11328;53.928;18.522;2023-02-17T00:03:57;7.00;99.90
22321;DHT22;11328;53.928;18.522;2023-02-17T00:06:27;7.00;99.90
22321;DHT22;11328;53.928;18.522;2023-02-17T00:08:55;6.90;99.90
22321;DHT22;11328;53.928;18.522;2023-02-17T00:11:23;6.90;99.90
22321;DHT22;11328;53.928;18.522;2023-02-17T00:13:51;6.80;99.90
22321;DHT22;11328;53.928;18.522;2023-02-17T00:16:23;6.80;99.90
22321;DHT22;11328;53.928;18.522;2023-02-17T00:18:54;6.80;99.90
22321;DHT22;11328;53.928;18.522;2023-02-17T00:21:26;6.80;99.90
22321;DHT22;11328;53.928;18.522;2023-02-17T00:23:56;6.70;99.90
22321;DHT22;11328;53.928;18.522;2023-02-17T00:26:24;6.80;99.90
22321;DHT22;11328;53.928;18.522;2023-02-17T00:28:51;6.80;99.90
22321;DHT22;11328;53.928;18.522;2023-02-17T00:31:20;6.80;99.90
22321;DHT22;11328;53.928;18.522;2023-02-17T00:33:48;6.90;99.90
22321;DHT22;11328;53.928;18.522;2023-02-17T00:36:18;6.90;99.90
22321;DHT22;11328;53.928;18.522;2023-02-17T00:38:46;6.90;99.90
22321;DHT22;11328;53.928;18.522;2023-02-17T00:41:15;6.80;99.90
22321;DHT22;11328;53.928;18.522;2023-02-17T00:43:44;6.80;99.90
22321;DHT22;11328;53.928;18.522;2023-02-17T00:46:11;6.80;99.90
22321;DHT22;11328;53.928;18.522;2023-02-17T00:48:39;6.80;99.90
22321;DHT22;11328;53.928;18.522;2023-02-17T00:51:06;6.80;99.90
22321;DHT22;11328;53.928;18.522;2023-02-17T00:53:35;6.80;99.90
22321;DHT22;11328;53.928;18.522;2023-02-17T00:56:02;6.80;99.90
22321;DHT22;11328;53.928;18.522;2023-02-17T00:58:30;6.80;99.90
22321;DHT22;11328;53.928;18.522;2023-02-17T01:00:57;6.90;99.90
22321;DHT22;11328;53.928;18.522;2023-02-17T01:03:25;6.90;99.90
22321;DHT22;11328;53.928;18.522;2023-02-17T01:05:53;6.90;99.90
22321;DHT22;11328;53.928;18.522;2023-02-17T01:08:21;6.90;99.90
22321;DHT22;11328;53.928;18.522;2023-02-17T01:10:49;7.00;99.90
22321;DHT22;11328;53.928;18.522;2023-02-17T01:13:18;6.90;99.90
22321;DHT22;11328;53.928;18.522;2023-02-17T01:15:49;6.90;99.90
22321;DHT22;11328;53.928;18.522;2023-02-17T01:18:20;7.00;99.90
22321;DHT22;11328;53.928;18.522;2023-02-17T01:20:49;7.10;99.90
22321;DHT22;11328;53.928;18.522;2023-02-17T01:23:17;7.20;99.90
22321;DHT22;11328;53.928;18.522;2023-02-17T01:25:46;7.10;99.90
22321;DHT22;11328;53.928;18.522;2023-02-17T01:28:17;7.10;99.90
22321;DHT22;11328;53.928;18.522;2023-02-17T01:30:46;7.10;99.90
22321;DHT22;11328;53.928;18.522;2023-02-17T01:33:14;7.10;99.90
22321;DHT22;11328;53.928;18.522;2023-02-17T01:35:41;7.10;99.90
22321;DHT22;11328;53.928;18.522;2023-02-17T01:38:08;7.10;99.90
22321;DHT22;11328;53.928;18.522;2023-02-17T01:40:35;7.10;99.90
22321;DHT22;11328;53.928;18.522;2023-02-17T01:43:02;7.20;99.90
22321;DHT22;11328;53.928;18.522;2023-02-17T01:45:40;7.20;99.90
22321;DHT22;11328;53.928;18.522;2023-02-17T01:48:13;7.30;99.90
22321;DHT22;11328;53.928;18.522;2023-02-17T01:50:47;7.30;99.90
22321;DHT22;11328;53.928;18.522;2023-02-17T01:53:25;7.30;99.90
22321;DHT22;11328;53.928;18.522;2023-02-17T01:55:56;7.20;99.90
22321;DHT22;11328;53.928;18.522;2023-02-17T01:58:24;7.30;99.90
22321;DHT22;11328;53.928;18.522;2023-02-17T02:00:54;7.20;99.90
22321;DHT22;11328;53.928;18.522;2023-02-17T02:03:26;7.30;99.90
22321;DHT22;11328;53.928;18.522;2023-02-17T02:05:58;7.30;99.90
22321;DHT22;11328;53.928;18.522;2023-02-17T02:08:29;7.30;99.90
22321;DHT22;11328;53.928;18.522;2023-02-17T02:11:08;7.40;99.90
22321;DHT22;11328;53.928;18.522;2023-02-17T02:13:35;7.20;99.90
22321;DHT22;11328;53.928;18.522;2023-02-17T02:17:07;7.30;99.90
22321;DHT22;11328;53.928;18.522;2023-02-17T02:33:11;7.50;99.90
22321;DHT22;11328;53.928;18.522;2023-02-17T02:36:47;7.50;99.90
22321;DHT22;11328;53.928;18.522;2023-02-17T02:39:00;7.50;99.90
22321;DHT22;11328;53.928;18.522;2023-02-17T02:41:35;7.50;99.90
22321;DHT22;11328;53.928;18.522;2023-02-17T02:44:09;7.50;99.90
22321;DHT22;11328;53.928;18.522;2023-02-17T02:46:40;7.50;99.90
22321;DHT22;11328;53.928;18.522;2023-02-17T02:49:07;7.60;99.90
22321;DHT22;11328;53.928;18.522;2023-02-17T02:57:36;7.60;99.90
22321;DHT22;11328;53.928;18.522;2023-02-17T03:00:40;7.60;99.90
22321;DHT22;11328;53.928;18.522;2023-02-17T03:03:21;7.60;99.90
22321;DHT22;11328;53.928;18.522;2023-02-17T03:06:05;7.50;99.90
22321;DHT22;11328;53.928;18.522;2023-02-17T03:08:59;7.60;99.90
22321;DHT22;11328;53.928;18.522;2023-02-17T03:11:33;7.50;99.90
22321;DHT22;11328;53.928;18.522;2023-02-17T03:14:08;7.50;99.90
22321;DHT22;11328;53.928;18.522;2023-02-17T03:16:38;7.50;99.90
22321;DHT22;11328;53.928;18.522;2023-02-17T03:19:08;7.60;99.90
22321;DHT22;11328;53.928;18.522;2023-02-17T03:21:46;7.60;99.90
22321;DHT22;11328;53.928;18.522;2023-02-17T03:24:33;7.60;99.90
22321;DHT22;11328;53.928;18.522;2023-02-17T03:27:00;7.60;99.90
22321;DHT22;11328;53.928;18.522;2023-02-17T03:29:28;7.70;99.90
22321;DHT22;11328;53.928;18.522;2023-02-17T03:31:55;7.60;99.90
22321;DHT22;11328;53.928;18.522;2023-02-17T03:34:22;7.50;99.90
22321;DHT22;11328;53.928;18.522;2023-02-17T03:36:49;7.50;99.90
22321;DHT22;11328;53.928;18.522;2023-02-17T03:39:16;7.50;99.90
22321;DHT22;11328;53.928;18.522;2023-02-17T03:41:43;7.60;99.90
22321;DHT22;11328;53.928;18.522;2023-02-17T03:44:10;7.50;99.90
22321;DHT22;11328;53.928;18.522;2023-02-17T03:46:38;7.50;99.90
22321;DHT22;11328;53.928;18.522;2023-02-17T03:49:06;7.50;99.90
22321;DHT22;11328;53.928;18.522;2023-02-17T03:51:33;7.50;99.90
22321;DHT22;11328;53.928;18.522;2023-02-17T03:54:00;7.50;99.90
22321;DHT22;11328;53.928;18.522;2023-02-17T03:56:27;7.50;99.90
22321;DHT22;11328;53.928;18.522;2023-02-17T03:58:54;7.50;99.90
22321;DHT22;11328;53.928;18.522;2023-02-17T04:01:21;7.50;99.90
22321;DHT22;11328;53.928;18.522;2023-02-17T04:03:48;7.50;99.90
22321;DHT22;11328;53.928;18.522;2023-02-17T04:06:16;7.50;99.90
22321;DHT22;11328;53.928;18.522;2023-02-17T04:08:43;7.60;99.90
22321;DHT22;11328;53.928;18.522;2023-02-17T04:11:10;7.50;99.90
22321;DHT22;11328;53.928;18.522;2023-02-17T04:13:38;7.50;99.90
22321;DHT22;11328;53.928;18.522;2023-02-17T04:16:07;7.50;99.90
22321;DHT22;11328;53.928;18.522;2023-02-17T04:18:36;7.50;99.90
22321;DHT22;11328;53.928;18.522;2023-02-17T04:21:04;7.50;99.90
22321;DHT22;11328;53.928;18.522;2023-02-17T04:23:33;7.50;99.90
22321;DHT22;11328;53.928;18.522;2023-02-17T04:26:05;7.50;99.90
22321;DHT22;11328;53.928;18.522;2023-02-17T04:28:34;7.50;99.90
22321;DHT22;11328;53.928;18.522;2023-02-17T04:31:03;7.50;99.90
22321;DHT22;11328;53.928;18.522;2023-02-17T04:33:30;7.60;99.90
22321;DHT22;11328;53.928;18.522;2023-02-17T04:35:57;7.60;99.90
22321;DHT22;11328;53.928;18.522;2023-02-17T04:38:29;7.60;99.90
22321;DHT22;11328;53.928;18.522;2023-02-17T04:40:58;7.60;99.90
22321;DHT22;11328;53.928;18.522;2023-02-17T04:43:26;7.70;99.90
22321;DHT22;11328;53.928;18.522;2023-02-17T04:45:54;7.60;99.90
22321;DHT22;11328;53.928;18.522;2023-02-17T04:48:22;7.60;99.90
22321;DHT22;11328;53.928;18.522;2023-02-17T04:50:49;7.60;99.90
22321;DHT22;11328;53.928;18.522;2023-02-17T04:53:17;7.60;99.90
22321;DHT22;11328;53.928;18.522;2023-02-17T05:09:53;7.50;99.90
22321;DHT22;11328;53.928;18.522;2023-02-17T05:12:20;8.20;99.90
22321;DHT22;11328;53.928;18.522;2023-02-17T05:14:47;8.00;99.90
22321;DHT22;11328;53.928;18.522;2023-02-17T05:17:14;7.90;99.90
22321;DHT22;11328;53.928;18.522;2023-02-17T05:19:41;7.70;99.90
22321;DHT22;11328;53.928;18.522;2023-02-17T05:22:08;7.60;99.90
22321;DHT22;11328;53.928;18.522;2023-02-17T05:24:35;7.60;99.90
22321;DHT22;11328;53.928;18.522;2023-02-17T05:27:04;7.50;99.90
22321;DHT22;11328;53.928;18.522;2023-02-17T05:29:32;7.50;99.90
22321;DHT22;11328;53.928;18.522;2023-02-17T05:31:59;7.50;99.90
22321;DHT22;11328;53.928;18.522;2023-02-17T05:34:26;7.50;99.90
22321;DHT22;11328;53.928;18.522;2023-02-17T05:36:53;7.50;99.90
22321;DHT22;11328;53.928;18.522;2023-02-17T05:39:20;7.40;99.90
22321;DHT22;11328;53.928;18.522;2023-02-17T05:41:47;7.40;99.90
22321;DHT22;11328;53.928;18.522;2023-02-17T05:44:14;7.40;99.90
22321;DHT22;11328;53.928;18.522;2023-02-17T05:46:41;7.40;99.90
22321;DHT22;11328;53.928;18.522;2023-02-17T05:49:08;7.40;99.90
22321;DHT22;11328;53.928;18.522;2023-02-17T05:51:35;7.40;99.90
22321;DHT22;11328;53.928;18.522;2023-02-17T05:54:03;7.30;99.90
22321;DHT22;11328;53.928;18.522;2023-02-17T05:56:30;7.20;99.90
22321;DHT22;11328;53.928;18.522;2023-02-17T05:58:59;7.20;99.90
22321;DHT22;11328;53.928;18.522;2023-02-17T06:01:26;7.20;99.90
22321;DHT22;11328;53.928;18.522;2023-02-17T06:03:53;7.20;99.90
22321;DHT22;11328;53.928;18.522;2023-02-17T06:06:21;7.30;99.90
22321;DHT22;11328;53.928;18.522;2023-02-17T06:08:48;7.20;99.90
22321;DHT22;11328;53.928;18.522;2023-02-17T06:11:14;7.20;99.90
22321;DHT22;11328;53.928;18.522;2023-02-17T06:13:41;7.20;99.90
22321;DHT22;11328;53.928;18.522;2023-02-17T06:16:08;7.20;99.90
22321;DHT22;11328;53.928;18.522;2023-02-17T06:18:36;7.20;99.90
22321;DHT22;11328;53.928;18.522;2023-02-17T06:21:03;7.20;99.90
22321;DHT22;11328;53.928;18.522;2023-02-17T06:23:30;7.20;99.90
22321;DHT22;11328;53.928;18.522;2023-02-17T06:25:57;7.10;99.90
22321;DHT22;11328;53.928;18.522;2023-02-17T06:28:25;7.20;99.90
22321;DHT22;11328;53.928;18.522;2023-02-17T06:30:52;7.10;99.90
22321;DHT22;11328;53.928;18.522;2023-02-17T06:33:19;7.20;99.90
22321;DHT22;11328;53.928;18.522;2023-02-17T06:35:50;7.20;99.90
22321;DHT22;11328;53.928;18.522;2023-02-17T06:38:18;7.20;99.90
22321;DHT22;11328;53.928;18.522;2023-02-17T06:40:45;7.20;99.90
22321;DHT22;11328;53.928;18.522;2023-02-17T06:43:12;7.20;99.90
22321;DHT22;11328;53.928;18.522;2023-02-17T06:45:39;7.20;99.90
22321;DHT22;11328;53.928;18.522;2023-02-17T06:48:06;7.20;99.90
22321;DHT22;11328;53.928;18.522;2023-02-17T06:50:34;7.20;99.90
22321;DHT22;11328;53.928;18.522;2023-02-17T06:53:01;7.20;99.90
22321;DHT22;11328;53.928;18.522;2023-02-17T06:55:29;7.20;99.90
22321;DHT22;11328;53.928;18.522;2023-02-17T06:57:56;7.30;99.90
22321;DHT22;11328;53.928;18.522;2023-02-17T07:00:23;7.30;99.90
22321;DHT22;11328;53.928;18.522;2023-02-17T07:02:50;7.40;99.90
22321;DHT22;11328;53.928;18.522;2023-02-17T07:05:17;7.40;99.90
22321;DHT22;11328;53.928;18.522;2023-02-17T07:07:45;7.40;99.90
22321;DHT22;11328;53.928;18.522;2023-02-17T07:10:12;7.50;99.90
22321;DHT22;11328;53.928;18.522;2023-02-17T07:12:39;7.40;99.90
22321;DHT22;11328;53.928;18.522;2023-02-17T07:15:06;7.40;99.90
22321;DHT22;11328;53.928;18.522;2023-02-17T07:17:38;7.50;99.90
22321;DHT22;11328;53.928;18.522;2023-02-17T07:20:05;7.50;99.90
22321;DHT22;11328;53.928;18.522;2023-02-17T07:22:33;7.50;99.90
22321;DHT22;11328;53.928;18.522;2023-02-17T07:25:00;7.50;99.90
22321;DHT22;11328;53.928;18.522;2023-02-17T07:27:27;7.50;99.90
22321;DHT22;11328;53.928;18.522;2023-02-17T07:29:54;7.50;99.90
22321;DHT22;11328;53.928;18.522;2023-02-17T07:32:22;7.40;99.90
22321;DHT22;11328;53.928;18.522;2023-02-17T07:34:49;7.40;99.90
22321;DHT22;11328;53.928;18.522;2023-02-17T07:37:16;7.50;99.90
22321;DHT22;11328;53.928;18.522;2023-02-17T07:39:45;7.50;99.90
22321;DHT22;11328;53.928;18.522;2023-02-17T07:42:13;7.40;99.90
22321;DHT22;11328;53.928;18.522;2023-02-17T07:44:40;7.50;99.90
22321;DHT22;11328;53.928;18.522;2023-02-17T07:47:08;7.50;99.90
22321;DHT22;11328;53.928;18.522;2023-02-17T07:49:35;7.40;99.90
22321;DHT22;11328;53.928;18.522;2023-02-17T07:52:02;7.50;99.90
22321;DHT22;11328;53.928;18.522;2023-02-17T07:54:31;7.50;99.90
22321;DHT22;11328;53.928;18.522;2023-02-17T07:56:58;7.50;99.90
22321;DHT22;11328;53.928;18.522;2023-02-17T07:59:25;7.60;99.90
22321;DHT22;11328;53.928;18.522;2023-02-17T08:01:53;7.60;99.90
22321;DHT22;11328;53.928;18.522;2023-02-17T08:04:20;7.60;99.90
22321;DHT22;11328;53.928;18.522;2023-02-17T08:06:47;7.60;99.90
22321;DHT22;11328;53.928;18.522;2023-02-17T08:09:14;7.70;99.90
22321;DHT22;11328;53.928;18.522;2023-02-17T08:12:00;7.70;99.90
22321;DHT22;11328;53.928;18.522;2023-02-17T08:14:46;7.80;99.90
22321;DHT22;11328;53.928;18.522;2023-02-17T08:17:13;7.80;99.90
22321;DHT22;11328;53.928;18.522;2023-02-17T08:19:40;7.80;99.90
22321;DHT22;11328;53.928;18.522;2023-02-17T08:22:15;8.00;99.90
22321;DHT22;11328;53.928;18.522;2023-02-17T08:24:43;8.00;99.90
22321;DHT22;11328;53.928;18.522;2023-02-17T08:27:12;8.00;99.90
22321;DHT22;11328;53.928;18.522;2023-02-17T08:29:41;8.00;99.90
22321;DHT22;11328;53.928;18.522;2023-02-17T08:32:09;8.00;99.90
22321;DHT22;11328;53.928;18.522;2023-02-17T08:34:37;8.00;99.90
22321;DHT22;11328;53.928;18.522;2023-02-17T08:37:05;8.00;99.90
22321;DHT22;11328;53.928;18.522;2023-02-17T08:39:33;8.00;99.90
22321;DHT22;11328;53.928;18.522;2023-02-17T08:42:03;8.00;99.90
22321;DHT22;11328;53.928;18.522;2023-02-17T08:44:33;8.10;99.90
22321;DHT22;11328;53.928;18.522;2023-02-17T08:47:03;8.10;99.90
22321;DHT22;11328;53.928;18.522;2023-02-17T08:49:31;8.10;99.90
22321;DHT22;11328;53.928;18.522;2023-02-17T08:51:59;8.00;99.90
22321;DHT22;11328;53.928;18.522;2023-02-17T08:54:26;8.10;99.90
22321;DHT22;11328;53.928;18.522;2023-02-17T08:56:56;8.10;99.90
22321;DHT22;11328;53.928;18.522;2023-02-17T08:59:24;8.10;99.90
22321;DHT22;11328;53.928;18.522;2023-02-17T09:01:51;8.00;99.90
22321;DHT22;11328;53.928;18.522;2023-02-17T09:04:18;8.10;99.90
22321;DHT22;11328;53.928;18.522;2023-02-17T09:06:51;8.10;99.90
22321;DHT22;11328;53.928;18.522;2023-02-17T09:09:23;8.10;99.90
22321;DHT22;11328;53.928;18.522;2023-02-17T09:11:56;8.10;99.90
22321;DHT22;11328;53.928;18.522;2023-02-17T09:14:24;8.20;99.90
22321;DHT22;11328;53.928;18.522;2023-02-17T09:16:52;8.20;99.90
22321;DHT22;11328;53.928;18.522;2023-02-17T09:19:20;8.20;99.90
22321;DHT22;11328;53.928;18.522;2023-02-17T09:21:48;8.20;99.90
22321;DHT22;11328;53.928;18.522;2023-02-17T09:24:16;8.20;99.90
22321;DHT22;11328;53.928;18.522;2023-02-17T09:26:43;8.10;99.90
22321;DHT22;11328;53.928;18.522;2023-02-17T09:29:11;8.10;99.90
22321;DHT22;11328;53.928;18.522;2023-02-17T09:31:38;8.00;99.90
22321;DHT22;11328;53.928;18.522;2023-02-17T09:34:05;7.90;99.90
22321;DHT22;11328;53.928;18.522;2023-02-17T09:36:38;7.90;99.90
22321;DHT22;11328;53.928;18.522;2023-02-17T09:39:06;8.00;99.90
22321;DHT22;11328;53.928;18.522;2023-02-17T09:41:49;8.00;99.90
22321;DHT22;11328;53.928;18.522;2023-02-17T09:44:22;8.00;99.90
22321;DHT22;11328;53.928;18.522;2023-02-17T09:49:42;8.00;99.90
22321;DHT22;11328;53.928;18.522;2023-02-17T09:52:41;8.00;99.90
22321;DHT22;11328;53.928;18.522;2023-02-17T09:55:35;8.00;99.90
22321;DHT22;11328;53.928;18.522;2023-02-17T09:58:14;7.90;99.90
22321;DHT22;11328;53.928;18.522;2023-02-17T10:00:50;7.90;99.90
22321;DHT22;11328;53.928;18.522;2023-02-17T10:03:33;7.90;99.90
22321;DHT22;11328;53.928;18.522;2023-02-17T10:06:24;7.90;99.90
22321;DHT22;11328;53.928;18.522;2023-02-17T10:12:00;8.00;99.90
22321;DHT22;11328;53.928;18.522;2023-02-17T10:15:43;7.90;99.90
22321;DHT22;11328;53.928;18.522;2023-02-17T10:18:09;7.90;99.90
22321;DHT22;11328;53.928;18.522;2023-02-17T10:21:04;7.90;99.90
22321;DHT22;11328;53.928;18.522;2023-02-17T10:23:37;7.80;99.90
22321;DHT22;11328;53.928;18.522;2023-02-17T10:32:22;7.90;99.90
22321;DHT22;11328;53.928;18.522;2023-02-17T10:35:11;7.90;99.90
22321;DHT22;11328;53.928;18.522;2023-02-17T10:37:59;7.90;99.90
22321;DHT22;11328;53.928;18.522;2023-02-17T10:40:32;7.90;99.90
22321;DHT22;11328;53.928;18.522;2023-02-17T10:43:02;7.90;99.90
22321;DHT22;11328;53.928;18.522;2023-02-17T10:45:42;8.00;99.90
22321;DHT22;11328;53.928;18.522;2023-02-17T10:48:19;8.00;99.90
22321;DHT22;11328;53.928;18.522;2023-02-17T10:50:50;8.10;99.90
22321;DHT22;11328;53.928;18.522;2023-02-17T10:53:25;8.00;99.90
22321;DHT22;11328;53.928;18.522;2023-02-17T10:56:14;8.00;99.90
22321;DHT22;11328;53.928;18.522;2023-02-17T11:01:25;8.20;99.90
22321;DHT22;11328;53.928;18.522;2023-02-17T11:04:05;8.20;99.90
22321;DHT22;11328;53.928;18.522;2023-02-17T11:09:25;8.20;99.90
22321;DHT22;11328;53.928;18.522;2023-02-17T11:12:00;8.20;99.90
22321;DHT22;11328;53.928;18.522;2023-02-17T11:14:46;8.10;99.90
22321;DHT22;11328;53.928;18.522;2023-02-17T11:17:49;8.10;99.90
22321;DHT22;11328;53.928;18.522;2023-02-17T11:22:58;8.10;99.90
22321;DHT22;11328;53.928;18.522;2023-02-17T11:25:34;8.10;99.90
22321;DHT22;11328;53.928;18.522;2023-02-17T11:28:12;8.10;99.90
22321;DHT22;11328;53.928;18.522;2023-02-17T11:30:51;8.00;99.90
22321;DHT22;11328;53.928;18.522;2023-02-17T11:33:44;8.10;99.90
22321;DHT22;11328;53.928;18.522;2023-02-17T11:36:30;8.10;99.90
22321;DHT22;11328;53.928;18.522;2023-02-17T11:38:58;8.10;99.90
22321;DHT22;11328;53.928;18.522;2023-02-17T11:41:26;8.00;99.90
22321;DHT22;11328;53.928;18.522;2023-02-17T11:44:04;8.00;99.90
22321;DHT22;11328;53.928;18.522;2023-02-17T11:46:45;8.00;99.90
22321;DHT22;11328;53.928;18.522;2023-02-17T11:55:27;8.10;99.90
22321;DHT22;11328;53.928;18.522;2023-02-17T12:04:37;8.00;99.90
22321;DHT22;11328;53.928;18.522;2023-02-17T12:10:25;8.10;99.90
22321;DHT22;11328;53.928;18.522;2023-02-17T12:25:17;8.00;99.90
22321;DHT22;11328;53.928;18.522;2023-02-17T12:36:57;7.90;99.90
22321;DHT22;11328;53.928;18.522;2023-02-17T12:39:31;7.90;99.90
22321;DHT22;11328;53.928;18.522;2023-02-17T12:42:17;8.00;99.90
22321;DHT22;11328;53.928;18.522;2023-02-17T12:44:52;8.00;99.90
22321;DHT22;11328;53.928;18.522;2023-02-17T12:47:37;8.00;99.90
22321;DHT22;11328;53.928;18.522;2023-02-17T12:50:36;8.10;99.90
22321;DHT22;11328;53.928;18.522;2023-02-17T12:53:10;8.10;99.90
22321;DHT22;11328;53.928;18.522;2023-02-17T12:55:54;8.00;99.90
22321;DHT22;11328;53.928;18.522;2023-02-17T12:58:27;8.10;99.90
22321;DHT22;11328;53.928;18.522;2023-02-17T13:01:04;8.10;99.90
22321;DHT22;11328;53.928;18.522;2023-02-17T13:03:35;8.10;99.90
22321;DHT22;11328;53.928;18.522;2023-02-17T13:11:47;8.20;99.90
22321;DHT22;11328;53.928;18.522;2023-02-17T13:14:25;8.30;99.90
22321;DHT22;11328;53.928;18.522;2023-02-17T13:22:40;8.40;99.90
22321;DHT22;11328;53.928;18.522;2023-02-17T13:25:24;8.30;99.90
22321;DHT22;11328;53.928;18.522;2023-02-17T13:28:01;8.40;99.90
22321;DHT22;11328;53.928;18.522;2023-02-17T13:30:44;8.40;99.90
22321;DHT22;11328;53.928;18.522;2023-02-17T13:35:48;8.40;99.90
22321;DHT22;11328;53.928;18.522;2023-02-17T13:38:30;8.40;99.90
22321;DHT22;11328;53.928;18.522;2023-02-17T13:41:00;8.40;99.90
22321;DHT22;11328;53.928;18.522;2023-02-17T13:43:40;8.40;99.90
22321;DHT22;11328;53.928;18.522;2023-02-17T13:46:19;8.50;99.90
22321;DHT22;11328;53.928;18.522;2023-02-17T13:48:58;8.50;99.90
22321;DHT22;11328;53.928;18.522;2023-02-17T13:51:32;8.50;99.90
22321;DHT22;11328;53.928;18.522;2023-02-17T13:54:07;8.50;99.90
22321;DHT22;11328;53.928;18.522;2023-02-17T13:56:40;8.50;99.90
22321;DHT22;11328;53.928;18.522;2023-02-17T13:59:17;8.50;99.90
22321;DHT22;11328;53.928;18.522;2023-02-17T14:01:51;8.50;99.90
22321;DHT22;11328;53.928;18.522;2023-02-17T14:04:27;8.50;99.90
22321;DHT22;11328;53.928;18.522;2023-02-17T14:06:57;8.50;99.90
22321;DHT22;11328;53.928;18.522;2023-02-17T14:09:29;8.50;99.90
22321;DHT22;11328;53.928;18.522;2023-02-17T14:12:02;8.50;99.90
22321;DHT22;11328;53.928;18.522;2023-02-17T14:14:36;8.50;99.90
22321;DHT22;11328;53.928;18.522;2023-02-17T14:17:26;8.50;99.90
22321;DHT22;11328;53.928;18.522;2023-02-17T14:19:58;8.50;99.90
22321;DHT22;11328;53.928;18.522;2023-02-17T14:22:30;8.60;99.90
22321;DHT22;11328;53.928;18.522;2023-02-17T14:25:13;8.60;99.90
22321;DHT22;11328;53.928;18.522;2023-02-17T14:27:51;8.60;99.90
22321;DHT22;11328;53.928;18.522;2023-02-17T14:33:23;8.60;99.90
22321;DHT22;11328;53.928;18.522;2023-02-17T14:35:57;8.70;99.90
22321;DHT22;11328;53.928;18.522;2023-02-17T14:38:35;8.70;99.90
22321;DHT22;11328;53.928;18.522;2023-02-17T14:41:07;8.70;99.90
22321;DHT22;11328;53.928;18.522;2023-02-17T14:43:35;8.70;99.90
22321;DHT22;11328;53.928;18.522;2023-02-17T14:46:02;8.80;99.90
22321;DHT22;11328;53.928;18.522;2023-02-17T14:48:31;8.80;99.90
22321;DHT22;11328;53.928;18.522;2023-02-17T14:50:58;8.80;99.90
22321;DHT22;11328;53.928;18.522;2023-02-17T14:53:29;8.80;99.90
22321;DHT22;11328;53.928;18.522;2023-02-17T14:58:47;8.80;99.90
22321;DHT22;11328;53.928;18.522;2023-02-17T15:01:17;8.80;99.90
22321;DHT22;11328;53.928;18.522;2023-02-17T15:03:45;8.80;99.90
22321;DHT22;11328;53.928;18.522;2023-02-17T15:06:15;8.80;99.90
22321;DHT22;11328;53.928;18.522;2023-02-17T15:08:53;8.90;99.90
22321;DHT22;11328;53.928;18.522;2023-02-17T15:11:30;8.90;99.90
22321;DHT22;11328;53.928;18.522;2023-02-17T15:14:00;8.90;99.90
22321;DHT22;11328;53.928;18.522;2023-02-17T15:16:29;8.90;99.90
22321;DHT22;11328;53.928;18.522;2023-02-17T15:18:57;9.00;99.90
22321;DHT22;11328;53.928;18.522;2023-02-17T15:21:27;9.00;99.90
22321;DHT22;11328;53.928;18.522;2023-02-17T15:24:01;9.00;99.90
22321;DHT22;11328;53.928;18.522;2023-02-17T15:26:31;9.00;99.90
22321;DHT22;11328;53.928;18.522;2023-02-17T15:28:59;8.90;99.90
22321;DHT22;11328;53.928;18.522;2023-02-17T15:31:28;9.00;99.90
22321;DHT22;11328;53.928;18.522;2023-02-17T15:34:00;8.90;99.90
22321;DHT22;11328;53.928;18.522;2023-02-17T15:36:33;8.90;99.90
22321;DHT22;11328;53.928;18.522;2023-02-17T15:39:00;9.00;99.90
22321;DHT22;11328;53.928;18.522;2023-02-17T15:41:28;9.00;99.90
22321;DHT22;11328;53.928;18.522;2023-02-17T15:43:57;9.00;99.90
22321;DHT22;11328;53.928;18.522;2023-02-17T15:46:30;9.00;99.90
22321;DHT22;11328;53.928;18.522;2023-02-17T15:48:59;9.00;99.90
22321;DHT22;11328;53.928;18.522;2023-02-17T15:51:26;8.90;99.90
22321;DHT22;11328;53.928;18.522;2023-02-17T15:53:53;8.90;99.90
22321;DHT22;11328;53.928;18.522;2023-02-17T15:56:23;9.00;99.90
22321;DHT22;11328;53.928;18.522;2023-02-17T15:58:53;9.00;99.90
22321;DHT22;11328;53.928;18.522;2023-02-17T16:03:58;8.90;99.90
22321;DHT22;11328;53.928;18.522;2023-02-17T16:06:26;9.00;99.90
22321;DHT22;11328;53.928;18.522;2023-02-17T16:08:55;9.10;99.90
22321;DHT22;11328;53.928;18.522;2023-02-17T16:11:25;9.10;99.90
22321;DHT22;11328;53.928;18.522;2023-02-17T16:13:54;9.10;99.90
22321;DHT22;11328;53.928;18.522;2023-02-17T16:16:25;9.10;99.90
22321;DHT22;11328;53.928;18.522;2023-02-17T16:18:55;9.10;99.90
22321;DHT22;11328;53.928;18.522;2023-02-17T16:21:23;9.10;99.90
22321;DHT22;11328;53.928;18.522;2023-02-17T16:23:50;9.20;99.90
22321;DHT22;11328;53.928;18.522;2023-02-17T16:26:32;9.20;99.90
22321;DHT22;11328;53.928;18.522;2023-02-17T16:29:11;9.10;99.90
22321;DHT22;11328;53.928;18.522;2023-02-17T16:31:47;9.20;99.90
22321;DHT22;11328;53.928;18.522;2023-02-17T16:34:17;9.20;99.90
22321;DHT22;11328;53.928;18.522;2023-02-17T16:36:52;9.20;99.90
22321;DHT22;11328;53.928;18.522;2023-02-17T16:39:23;9.20;99.90
22321;DHT22;11328;53.928;18.522;2023-02-17T16:41:50;9.20;99.90
22321;DHT22;11328;53.928;18.522;2023-02-17T16:44:20;9.20;99.90
22321;DHT22;11328;53.928;18.522;2023-02-17T16:46:53;9.30;99.90
22321;DHT22;11328;53.928;18.522;2023-02-17T16:49:24;9.30;99.90
22321;DHT22;11328;53.928;18.522;2023-02-17T16:52:03;9.30;99.90
22321;DHT22;11328;53.928;18.522;2023-02-17T16:54:33;9.40;99.90
22321;DHT22;11328;53.928;18.522;2023-02-17T16:57:01;9.30;99.90
22321;DHT22;11328;53.928;18.522;2023-02-17T16:59:29;9.30;99.90
22321;DHT22;11328;53.928;18.522;2023-02-17T17:01:56;9.40;99.90
22321;DHT22;11328;53.928;18.522;2023-02-17T17:04:23;9.40;99.90
22321;DHT22;11328;53.928;18.522;2023-02-17T17:06:51;9.30;99.90
22321;DHT22;11328;53.928;18.522;2023-02-17T17:09:22;9.40;99.90
22321;DHT22;11328;53.928;18.522;2023-02-17T17:11:50;9.40;99.90
22321;DHT22;11328;53.928;18.522;2023-02-17T17:14:17;9.40;99.90
22321;DHT22;11328;53.928;18.522;2023-02-17T17:16:51;9.40;99.90
22321;DHT22;11328;53.928;18.522;2023-02-17T17:19:23;9.40;99.90
22321;DHT22;11328;53.928;18.522;2023-02-17T17:21:51;9.50;99.90
22321;DHT22;11328;53.928;18.522;2023-02-17T17:24:18;9.50;99.90
22321;DHT22;11328;53.928;18.522;2023-02-17T17:26:47;9.50;99.90
22321;DHT22;11328;53.928;18.522;2023-02-17T17:29:18;9.50;99.90
22321;DHT22;11328;53.928;18.522;2023-02-17T17:31:46;9.50;99.90
22321;DHT22;11328;53.928;18.522;2023-02-17T17:34:13;9.50;99.90
22321;DHT22;11328;53.928;18.522;2023-02-17T17:36:43;9.60;99.90
22321;DHT22;11328;53.928;18.522;2023-02-17T17:39:21;9.60;99.90
22321;DHT22;11328;53.928;18.522;2023-02-17T17:41:50;9.60;99.90
22321;DHT22;11328;53.928;18.522;2023-02-17T17:44:17;9.60;99.90
22321;DHT22;11328;53.928;18.522;2023-02-17T17:46:47;9.60;99.90
22321;DHT22;11328;53.928;18.522;2023-02-17T17:49:15;9.70;99.90
22321;DHT22;11328;53.928;18.522;2023-02-17T17:51:44;9.70;99.90